Current Weather

Port Angeles Cgas

Port Angeles, Washington (KNOW)

Report from: Wednesday, April 24, 2024 11:55 AM PDT
Current time: Wednesday, April 24, 2024 12:23 PM PDT

Nearby weather – Weather history – Daily summaries
Weather forecast

Temperature9.5°C (49.1°F)
Wind chill7.6°C (45.6°F)
Dew point6.3°C (43.3°F)
Winds 7 kts (3.6 m/s, 8.1 mph) West (270°)
Visibility10 mi. (16.1 km)
Clouds Ceiling: Overcast 3,000 ft. (914 m)
Altimeter30.06 in.Hg (1018 mB)
Relative humidity80 %
Density altitude-679 ft. (-207 m)
Remarks Fully automated report
Automated weather observing station with precipitation discriminator
Flight conditions Visual Meteorological Conditions
Raw dataKNOW 241855Z AUTO 27007KT 10SM OVC030 10/06 A3006 RMK AO2 T00950063
An error has occurred. This application may no longer respond until reloaded. Reload 🗙